sensor_id;sensor_type;location;lat;lon;timestamp;temperature;humidity
30308;DHT22;17114;52.314;8.910;2024-02-28T00:00:12;-0.20;99.90
30308;DHT22;17114;52.314;8.910;2024-02-28T00:02:39;-0.30;99.90
30308;DHT22;17114;52.314;8.910;2024-02-28T00:05:07;-0.30;99.90
30308;DHT22;17114;52.314;8.910;2024-02-28T00:07:34;-0.30;99.90
30308;DHT22;17114;52.314;8.910;2024-02-28T00:10:02;-0.30;99.90
30308;DHT22;17114;52.314;8.910;2024-02-28T00:12:29;-0.40;99.90
30308;DHT22;17114;52.314;8.910;2024-02-28T00:14:56;-0.40;99.90
30308;DHT22;17114;52.314;8.910;2024-02-28T00:17:24;-0.40;99.90
30308;DHT22;17114;52.314;8.910;2024-02-28T00:19:50;-0.40;99.90
30308;DHT22;17114;52.314;8.910;2024-02-28T00:22:17;-0.30;99.90
30308;DHT22;17114;52.314;8.910;2024-02-28T00:24:44;-0.50;99.90
30308;DHT22;17114;52.314;8.910;2024-02-28T00:27:11;-0.50;99.90
30308;DHT22;17114;52.314;8.910;2024-02-28T00:29:38;-0.60;99.90
30308;DHT22;17114;52.314;8.910;2024-02-28T00:32:05;-0.60;99.90
30308;DHT22;17114;52.314;8.910;2024-02-28T00:34:32;-0.70;99.90
30308;DHT22;17114;52.314;8.910;2024-02-28T00:36:59;-0.70;99.90
30308;DHT22;17114;52.314;8.910;2024-02-28T00:39:26;-0.70;99.90
30308;DHT22;17114;52.314;8.910;2024-02-28T00:41:53;-0.80;99.90
30308;DHT22;17114;52.314;8.910;2024-02-28T00:44:20;-0.80;99.90
30308;DHT22;17114;52.314;8.910;2024-02-28T00:46:47;-0.90;99.90
30308;DHT22;17114;52.314;8.910;2024-02-28T00:49:14;-0.90;99.90
30308;DHT22;17114;52.314;8.910;2024-02-28T00:51:40;-0.90;99.90
30308;DHT22;17114;52.314;8.910;2024-02-28T00:54:07;-0.90;99.90
30308;DHT22;17114;52.314;8.910;2024-02-28T00:56:35;-0.90;99.90
30308;DHT22;17114;52.314;8.910;2024-02-28T00:59:01;-1.00;99.90
30308;DHT22;17114;52.314;8.910;2024-02-28T01:01:29;-1.00;99.90
30308;DHT22;17114;52.314;8.910;2024-02-28T01:03:56;-0.90;99.90
30308;DHT22;17114;52.314;8.910;2024-02-28T01:06:23;-0.90;99.90
30308;DHT22;17114;52.314;8.910;2024-02-28T01:08:50;-0.90;99.90
30308;DHT22;17114;52.314;8.910;2024-02-28T01:11:16;-1.00;99.90
30308;DHT22;17114;52.314;8.910;2024-02-28T01:13:43;-1.00;99.90
30308;DHT22;17114;52.314;8.910;2024-02-28T01:16:10;-1.10;99.90
30308;DHT22;17114;52.314;8.910;2024-02-28T01:18:37;-1.20;99.90
30308;DHT22;17114;52.314;8.910;2024-02-28T01:21:04;-1.20;99.90
30308;DHT22;17114;52.314;8.910;2024-02-28T01:23:31;-1.20;99.90
30308;DHT22;17114;52.314;8.910;2024-02-28T01:25:58;-1.20;99.90
30308;DHT22;17114;52.314;8.910;2024-02-28T01:28:25;-1.30;99.90
30308;DHT22;17114;52.314;8.910;2024-02-28T01:30:52;-1.30;99.90
30308;DHT22;17114;52.314;8.910;2024-02-28T01:33:19;-1.30;99.90
30308;DHT22;17114;52.314;8.910;2024-02-28T01:35:46;-1.30;99.90
30308;DHT22;17114;52.314;8.910;2024-02-28T01:38:13;-1.30;99.90
30308;DHT22;17114;52.314;8.910;2024-02-28T01:40:45;-1.30;99.90
30308;DHT22;17114;52.314;8.910;2024-02-28T01:43:12;-1.30;99.90
30308;DHT22;17114;52.314;8.910;2024-02-28T01:45:39;-1.30;99.90
30308;DHT22;17114;52.314;8.910;2024-02-28T01:48:09;-1.30;99.90
30308;DHT22;17114;52.314;8.910;2024-02-28T01:50:37;-1.30;99.90
30308;DHT22;17114;52.314;8.910;2024-02-28T01:53:06;-1.40;99.90
30308;DHT22;17114;52.314;8.910;2024-02-28T01:55:35;-1.40;99.90
30308;DHT22;17114;52.314;8.910;2024-02-28T01:58:03;-1.40;99.90
30308;DHT22;17114;52.314;8.910;2024-02-28T02:00:34;-1.40;99.90
30308;DHT22;17114;52.314;8.910;2024-02-28T02:03:01;-1.40;99.90
30308;DHT22;17114;52.314;8.910;2024-02-28T02:05:29;-1.50;99.90
30308;DHT22;17114;52.314;8.910;2024-02-28T02:07:57;-1.40;99.90
30308;DHT22;17114;52.314;8.910;2024-02-28T02:10:25;-1.50;99.90
30308;DHT22;17114;52.314;8.910;2024-02-28T02:12:52;-1.40;99.90
30308;DHT22;17114;52.314;8.910;2024-02-28T02:15:19;-1.50;99.90
30308;DHT22;17114;52.314;8.910;2024-02-28T02:17:46;-1.50;99.90
30308;DHT22;17114;52.314;8.910;2024-02-28T02:20:14;-1.50;99.90
30308;DHT22;17114;52.314;8.910;2024-02-28T02:22:42;-1.50;99.90
30308;DHT22;17114;52.314;8.910;2024-02-28T02:25:09;-1.50;99.90
30308;DHT22;17114;52.314;8.910;2024-02-28T02:27:36;-1.50;99.90
30308;DHT22;17114;52.314;8.910;2024-02-28T02:30:03;-1.40;99.90
30308;DHT22;17114;52.314;8.910;2024-02-28T02:32:30;-1.40;99.90
30308;DHT22;17114;52.314;8.910;2024-02-28T02:34:57;-1.50;99.90
30308;DHT22;17114;52.314;8.910;2024-02-28T02:37:24;-1.50;99.90
30308;DHT22;17114;52.314;8.910;2024-02-28T02:39:51;-1.50;99.90
30308;DHT22;17114;52.314;8.910;2024-02-28T02:42:19;-1.60;99.90
30308;DHT22;17114;52.314;8.910;2024-02-28T02:44:46;-1.70;99.90
30308;DHT22;17114;52.314;8.910;2024-02-28T02:47:12;-1.70;99.90
30308;DHT22;17114;52.314;8.910;2024-02-28T02:49:39;-1.70;99.90
30308;DHT22;17114;52.314;8.910;2024-02-28T02:52:06;-1.70;99.90
30308;DHT22;17114;52.314;8.910;2024-02-28T02:54:33;-1.70;99.90
30308;DHT22;17114;52.314;8.910;2024-02-28T02:57:00;-1.80;99.90
30308;DHT22;17114;52.314;8.910;2024-02-28T02:59:27;-1.80;99.90
30308;DHT22;17114;52.314;8.910;2024-02-28T03:01:54;-1.80;99.90
30308;DHT22;17114;52.314;8.910;2024-02-28T03:04:21;-1.80;99.90
30308;DHT22;17114;52.314;8.910;2024-02-28T03:06:48;-1.90;99.90
30308;DHT22;17114;52.314;8.910;2024-02-28T03:09:15;-1.90;99.90
30308;DHT22;17114;52.314;8.910;2024-02-28T03:11:41;-1.90;99.90
30308;DHT22;17114;52.314;8.910;2024-02-28T03:14:08;-1.90;99.90
30308;DHT22;17114;52.314;8.910;2024-02-28T03:16:40;-2.00;99.90
30308;DHT22;17114;52.314;8.910;2024-02-28T03:19:07;-2.00;99.90
30308;DHT22;17114;52.314;8.910;2024-02-28T03:21:34;-1.90;99.90
30308;DHT22;17114;52.314;8.910;2024-02-28T03:24:01;-1.90;99.90
30308;DHT22;17114;52.314;8.910;2024-02-28T03:26:28;-2.00;99.90
30308;DHT22;17114;52.314;8.910;2024-02-28T03:28:55;-1.90;99.90
30308;DHT22;17114;52.314;8.910;2024-02-28T03:31:22;-2.00;99.90
30308;DHT22;17114;52.314;8.910;2024-02-28T03:33:49;-2.00;99.90
30308;DHT22;17114;52.314;8.910;2024-02-28T03:36:16;-2.00;99.90
30308;DHT22;17114;52.314;8.910;2024-02-28T03:38:43;-2.00;99.90
30308;DHT22;17114;52.314;8.910;2024-02-28T03:41:10;-2.00;99.90
30308;DHT22;17114;52.314;8.910;2024-02-28T03:43:37;-2.00;99.90
30308;DHT22;17114;52.314;8.910;2024-02-28T03:46:03;-1.90;99.90
30308;DHT22;17114;52.314;8.910;2024-02-28T03:48:30;-1.90;99.90
30308;DHT22;17114;52.314;8.910;2024-02-28T03:50:57;-1.80;99.90
30308;DHT22;17114;52.314;8.910;2024-02-28T03:53:24;-1.80;99.90
30308;DHT22;17114;52.314;8.910;2024-02-28T03:55:51;-1.80;99.90
30308;DHT22;17114;52.314;8.910;2024-02-28T03:58:18;-1.80;99.90
30308;DHT22;17114;52.314;8.910;2024-02-28T04:00:45;-1.90;99.90
30308;DHT22;17114;52.314;8.910;2024-02-28T04:03:13;-1.90;99.90
30308;DHT22;17114;52.314;8.910;2024-02-28T04:05:41;-1.80;99.90
30308;DHT22;17114;52.314;8.910;2024-02-28T04:08:08;-1.90;99.90
30308;DHT22;17114;52.314;8.910;2024-02-28T04:10:35;-1.90;99.90
30308;DHT22;17114;52.314;8.910;2024-02-28T04:13:02;-1.90;99.90
30308;DHT22;17114;52.314;8.910;2024-02-28T04:15:30;-2.00;99.90
30308;DHT22;17114;52.314;8.910;2024-02-28T04:17:57;-2.00;99.90
30308;DHT22;17114;52.314;8.910;2024-02-28T04:20:25;-2.00;99.90
30308;DHT22;17114;52.314;8.910;2024-02-28T04:22:52;-2.00;99.90
30308;DHT22;17114;52.314;8.910;2024-02-28T04:25:18;-2.00;99.90
30308;DHT22;17114;52.314;8.910;2024-02-28T04:27:45;-2.10;99.90
30308;DHT22;17114;52.314;8.910;2024-02-28T04:30:13;-2.10;99.90
30308;DHT22;17114;52.314;8.910;2024-02-28T04:32:41;-2.10;99.90
30308;DHT22;17114;52.314;8.910;2024-02-28T04:35:08;-2.20;99.90
30308;DHT22;17114;52.314;8.910;2024-02-28T04:37:35;-2.20;99.90
30308;DHT22;17114;52.314;8.910;2024-02-28T04:40:03;-2.30;99.90
30308;DHT22;17114;52.314;8.910;2024-02-28T04:42:31;-2.30;99.90
30308;DHT22;17114;52.314;8.910;2024-02-28T04:44:58;-2.30;99.90
30308;DHT22;17114;52.314;8.910;2024-02-28T04:47:24;-2.30;99.90
30308;DHT22;17114;52.314;8.910;2024-02-28T04:50:02;-2.20;99.90
30308;DHT22;17114;52.314;8.910;2024-02-28T04:52:32;-2.40;99.90
30308;DHT22;17114;52.314;8.910;2024-02-28T04:54:59;-2.30;99.90
30308;DHT22;17114;52.314;8.910;2024-02-28T04:57:27;-2.30;99.90
30308;DHT22;17114;52.314;8.910;2024-02-28T04:59:54;-2.30;99.90
30308;DHT22;17114;52.314;8.910;2024-02-28T05:02:20;-2.30;99.90
30308;DHT22;17114;52.314;8.910;2024-02-28T05:04:52;-2.30;99.90
30308;DHT22;17114;52.314;8.910;2024-02-28T05:07:19;-2.30;99.90
30308;DHT22;17114;52.314;8.910;2024-02-28T05:09:46;-2.20;99.90
30308;DHT22;17114;52.314;8.910;2024-02-28T05:12:13;-2.30;99.90
30308;DHT22;17114;52.314;8.910;2024-02-28T05:14:40;-2.30;99.90
30308;DHT22;17114;52.314;8.910;2024-02-28T05:17:07;-2.30;99.90
30308;DHT22;17114;52.314;8.910;2024-02-28T05:19:33;-2.30;99.90
30308;DHT22;17114;52.314;8.910;2024-02-28T05:22:01;-2.30;99.90
30308;DHT22;17114;52.314;8.910;2024-02-28T05:24:28;-2.30;99.90
30308;DHT22;17114;52.314;8.910;2024-02-28T05:26:55;-2.30;99.90
30308;DHT22;17114;52.314;8.910;2024-02-28T05:29:22;-2.40;99.90
30308;DHT22;17114;52.314;8.910;2024-02-28T05:31:49;-2.40;99.90
30308;DHT22;17114;52.314;8.910;2024-02-28T05:34:16;-2.30;99.90
30308;DHT22;17114;52.314;8.910;2024-02-28T05:36:43;-2.30;99.90
30308;DHT22;17114;52.314;8.910;2024-02-28T05:39:10;-2.30;99.90
30308;DHT22;17114;52.314;8.910;2024-02-28T05:41:37;-2.30;99.90
30308;DHT22;17114;52.314;8.910;2024-02-28T05:44:04;-2.20;99.90
30308;DHT22;17114;52.314;8.910;2024-02-28T05:46:31;-2.20;99.90
30308;DHT22;17114;52.314;8.910;2024-02-28T05:48:58;-2.20;99.90
30308;DHT22;17114;52.314;8.910;2024-02-28T05:51:26;-2.20;99.90
30308;DHT22;17114;52.314;8.910;2024-02-28T05:53:53;-2.10;99.90
30308;DHT22;17114;52.314;8.910;2024-02-28T05:56:20;-2.00;99.90
30308;DHT22;17114;52.314;8.910;2024-02-28T05:58:48;-1.90;99.90
30308;DHT22;17114;52.314;8.910;2024-02-28T06:01:16;-1.80;99.90
30308;DHT22;17114;52.314;8.910;2024-02-28T06:03:47;-1.70;99.90
30308;DHT22;17114;52.314;8.910;2024-02-28T06:06:14;-1.50;99.90
30308;DHT22;17114;52.314;8.910;2024-02-28T06:08:42;-1.40;99.90
30308;DHT22;17114;52.314;8.910;2024-02-28T06:11:09;-1.30;99.90
30308;DHT22;17114;52.314;8.910;2024-02-28T06:13:37;-1.30;99.90
30308;DHT22;17114;52.314;8.910;2024-02-28T06:16:04;-1.20;99.90
30308;DHT22;17114;52.314;8.910;2024-02-28T06:18:31;-1.10;99.90
30308;DHT22;17114;52.314;8.910;2024-02-28T06:21:00;-1.00;99.90
30308;DHT22;17114;52.314;8.910;2024-02-28T06:23:28;-0.80;99.90
30308;DHT22;17114;52.314;8.910;2024-02-28T06:25:56;-0.70;99.90
30308;DHT22;17114;52.314;8.910;2024-02-28T06:28:24;-0.60;99.90
30308;DHT22;17114;52.314;8.910;2024-02-28T06:30:51;-0.40;99.90
30308;DHT22;17114;52.314;8.910;2024-02-28T06:33:18;-0.30;99.90
30308;DHT22;17114;52.314;8.910;2024-02-28T06:35:46;-0.20;99.90
30308;DHT22;17114;52.314;8.910;2024-02-28T06:38:12;-0.10;99.90
30308;DHT22;17114;52.314;8.910;2024-02-28T06:40:40;0.00;99.90
30308;DHT22;17114;52.314;8.910;2024-02-28T06:43:08;0.00;99.90
30308;DHT22;17114;52.314;8.910;2024-02-28T06:45:35;0.10;99.90
30308;DHT22;17114;52.314;8.910;2024-02-28T06:48:04;0.20;99.90
30308;DHT22;17114;52.314;8.910;2024-02-28T06:50:31;0.30;99.90
30308;DHT22;17114;52.314;8.910;2024-02-28T06:52:58;0.30;99.90
30308;DHT22;17114;52.314;8.910;2024-02-28T06:55:25;0.40;99.90
30308;DHT22;17114;52.314;8.910;2024-02-28T06:57:52;0.50;99.90
30308;DHT22;17114;52.314;8.910;2024-02-28T07:00:19;0.60;99.90
30308;DHT22;17114;52.314;8.910;2024-02-28T07:02:46;0.80;99.90
30308;DHT22;17114;52.314;8.910;2024-02-28T07:05:13;0.80;99.90
30308;DHT22;17114;52.314;8.910;2024-02-28T07:07:40;0.90;99.90
30308;DHT22;17114;52.314;8.910;2024-02-28T07:10:07;1.10;99.90
30308;DHT22;17114;52.314;8.910;2024-02-28T07:12:34;1.10;99.90
30308;DHT22;17114;52.314;8.910;2024-02-28T07:15:01;1.30;99.90
30308;DHT22;17114;52.314;8.910;2024-02-28T07:17:28;1.30;99.90
30308;DHT22;17114;52.314;8.910;2024-02-28T07:19:55;1.40;99.90
30308;DHT22;17114;52.314;8.910;2024-02-28T07:22:22;1.50;99.90
30308;DHT22;17114;52.314;8.910;2024-02-28T07:24:49;1.60;99.90
30308;DHT22;17114;52.314;8.910;2024-02-28T07:27:16;1.60;99.90
30308;DHT22;17114;52.314;8.910;2024-02-28T07:29:43;1.60;99.90
30308;DHT22;17114;52.314;8.910;2024-02-28T07:32:10;1.70;99.90
30308;DHT22;17114;52.314;8.910;2024-02-28T07:34:38;1.70;99.90
30308;DHT22;17114;52.314;8.910;2024-02-28T07:37:05;1.80;99.90
30308;DHT22;17114;52.314;8.910;2024-02-28T07:39:32;1.80;99.90
30308;DHT22;17114;52.314;8.910;2024-02-28T07:41:59;1.80;99.90
30308;DHT22;17114;52.314;8.910;2024-02-28T07:44:26;1.80;99.90
30308;DHT22;17114;52.314;8.910;2024-02-28T07:46:53;1.70;99.90
30308;DHT22;17114;52.314;8.910;2024-02-28T07:49:20;1.80;99.90
30308;DHT22;17114;52.314;8.910;2024-02-28T07:51:48;1.80;99.90
30308;DHT22;17114;52.314;8.910;2024-02-28T07:54:15;1.90;99.90
30308;DHT22;17114;52.314;8.910;2024-02-28T07:56:44;2.10;99.90
30308;DHT22;17114;52.314;8.910;2024-02-28T07:59:11;2.30;99.90
30308;DHT22;17114;52.314;8.910;2024-02-28T08:01:38;2.40;99.90
30308;DHT22;17114;52.314;8.910;2024-02-28T08:04:06;2.50;99.90
30308;DHT22;17114;52.314;8.910;2024-02-28T08:06:34;2.60;99.90
30308;DHT22;17114;52.314;8.910;2024-02-28T08:09:01;2.70;99.90
30308;DHT22;17114;52.314;8.910;2024-02-28T08:11:31;2.70;99.90
30308;DHT22;17114;52.314;8.910;2024-02-28T08:13:58;2.80;99.90
30308;DHT22;17114;52.314;8.910;2024-02-28T08:16:25;2.90;99.90
30308;DHT22;17114;52.314;8.910;2024-02-28T08:18:55;2.80;99.90
30308;DHT22;17114;52.314;8.910;2024-02-28T08:21:22;2.80;99.90
30308;DHT22;17114;52.314;8.910;2024-02-28T08:23:49;3.00;99.90
30308;DHT22;17114;52.314;8.910;2024-02-28T08:26:16;2.80;99.90
30308;DHT22;17114;52.314;8.910;2024-02-28T08:28:43;2.90;99.90
30308;DHT22;17114;52.314;8.910;2024-02-28T08:31:10;2.80;99.90
30308;DHT22;17114;52.314;8.910;2024-02-28T08:33:37;2.80;99.90
30308;DHT22;17114;52.314;8.910;2024-02-28T08:36:04;2.90;99.90
30308;DHT22;17114;52.314;8.910;2024-02-28T08:38:31;3.00;99.90
30308;DHT22;17114;52.314;8.910;2024-02-28T08:40:58;3.10;99.90
30308;DHT22;17114;52.314;8.910;2024-02-28T08:43:25;3.10;99.90
30308;DHT22;17114;52.314;8.910;2024-02-28T08:45:52;3.10;99.90
30308;DHT22;17114;52.314;8.910;2024-02-28T08:48:21;3.00;99.90
30308;DHT22;17114;52.314;8.910;2024-02-28T08:50:48;3.00;99.90
30308;DHT22;17114;52.314;8.910;2024-02-28T08:53:15;3.00;99.90
30308;DHT22;17114;52.314;8.910;2024-02-28T08:55:42;3.10;99.90
30308;DHT22;17114;52.314;8.910;2024-02-28T08:58:09;3.00;99.90
30308;DHT22;17114;52.314;8.910;2024-02-28T09:00:36;2.90;99.90
30308;DHT22;17114;52.314;8.910;2024-02-28T09:03:04;3.00;99.90
30308;DHT22;17114;52.314;8.910;2024-02-28T09:05:31;2.90;99.90
30308;DHT22;17114;52.314;8.910;2024-02-28T09:07:58;2.80;99.90
30308;DHT22;17114;52.314;8.910;2024-02-28T09:10:25;2.90;99.90
30308;DHT22;17114;52.314;8.910;2024-02-28T09:12:52;2.90;99.90
30308;DHT22;17114;52.314;8.910;2024-02-28T09:15:20;2.80;99.90
30308;DHT22;17114;52.314;8.910;2024-02-28T09:17:47;2.90;99.90
30308;DHT22;17114;52.314;8.910;2024-02-28T09:20:14;2.90;99.90
30308;DHT22;17114;52.314;8.910;2024-02-28T09:22:42;2.90;99.90
30308;DHT22;17114;52.314;8.910;2024-02-28T09:25:09;2.90;99.90
30308;DHT22;17114;52.314;8.910;2024-02-28T09:27:37;2.90;99.90
30308;DHT22;17114;52.314;8.910;2024-02-28T09:30:05;3.00;99.90
30308;DHT22;17114;52.314;8.910;2024-02-28T09:32:32;3.00;99.90
30308;DHT22;17114;52.314;8.910;2024-02-28T09:34:59;3.00;99.90
30308;DHT22;17114;52.314;8.910;2024-02-28T09:37:26;3.10;99.90
30308;DHT22;17114;52.314;8.910;2024-02-28T09:39:53;3.10;99.90
30308;DHT22;17114;52.314;8.910;2024-02-28T09:42:21;3.10;99.90
30308;DHT22;17114;52.314;8.910;2024-02-28T09:47:44;3.20;99.90
30308;DHT22;17114;52.314;8.910;2024-02-28T09:50:12;3.30;99.90
30308;DHT22;17114;52.314;8.910;2024-02-28T09:52:40;3.50;99.90
30308;DHT22;17114;52.314;8.910;2024-02-28T09:55:08;3.50;99.90
30308;DHT22;17114;52.314;8.910;2024-02-28T09:57:36;3.60;99.90
30308;DHT22;17114;52.314;8.910;2024-02-28T10:00:05;3.70;99.90
30308;DHT22;17114;52.314;8.910;2024-02-28T10:02:32;4.00;99.90
30308;DHT22;17114;52.314;8.910;2024-02-28T10:05:01;4.10;99.90
30308;DHT22;17114;52.314;8.910;2024-02-28T10:07:30;4.20;99.90
30308;DHT22;17114;52.314;8.910;2024-02-28T10:09:57;4.30;99.90
30308;DHT22;17114;52.314;8.910;2024-02-28T10:12:25;4.50;99.90
30308;DHT22;17114;52.314;8.910;2024-02-28T10:14:52;4.50;99.90
30308;DHT22;17114;52.314;8.910;2024-02-28T10:17:19;4.60;99.90
30308;DHT22;17114;52.314;8.910;2024-02-28T10:19:46;4.70;99.90
30308;DHT22;17114;52.314;8.910;2024-02-28T10:22:14;5.10;99.90
30308;DHT22;17114;52.314;8.910;2024-02-28T10:24:40;5.10;99.90
30308;DHT22;17114;52.314;8.910;2024-02-28T10:27:07;5.00;99.90
30308;DHT22;17114;52.314;8.910;2024-02-28T10:29:34;5.20;99.90
30308;DHT22;17114;52.314;8.910;2024-02-28T10:32:01;5.10;99.90
30308;DHT22;17114;52.314;8.910;2024-02-28T10:34:30;5.50;99.90
30308;DHT22;17114;52.314;8.910;2024-02-28T10:36:57;5.80;99.90
30308;DHT22;17114;52.314;8.910;2024-02-28T10:39:26;5.90;99.90
30308;DHT22;17114;52.314;8.910;2024-02-28T10:41:53;6.00;99.90
30308;DHT22;17114;52.314;8.910;2024-02-28T10:44:21;6.30;99.90
30308;DHT22;17114;52.314;8.910;2024-02-28T10:46:49;6.60;99.90
30308;DHT22;17114;52.314;8.910;2024-02-28T10:49:17;7.00;99.90
30308;DHT22;17114;52.314;8.910;2024-02-28T10:51:46;7.30;99.90
30308;DHT22;17114;52.314;8.910;2024-02-28T10:54:15;7.20;99.90
30308;DHT22;17114;52.314;8.910;2024-02-28T10:56:43;7.40;99.90
30308;DHT22;17114;52.314;8.910;2024-02-28T10:59:11;7.50;99.90
30308;DHT22;17114;52.314;8.910;2024-02-28T11:01:42;7.50;99.90
30308;DHT22;17114;52.314;8.910;2024-02-28T11:04:12;7.70;99.90
30308;DHT22;17114;52.314;8.910;2024-02-28T11:07:00;7.70;99.90
30308;DHT22;17114;52.314;8.910;2024-02-28T11:09:29;7.70;99.90
30308;DHT22;17114;52.314;8.910;2024-02-28T11:11:57;7.70;99.90
30308;DHT22;17114;52.314;8.910;2024-02-28T11:14:24;7.70;99.90
30308;DHT22;17114;52.314;8.910;2024-02-28T11:17:05;7.90;99.90
30308;DHT22;17114;52.314;8.910;2024-02-28T11:19:33;8.00;99.90
30308;DHT22;17114;52.314;8.910;2024-02-28T11:22:02;7.80;99.90
30308;DHT22;17114;52.314;8.910;2024-02-28T11:24:32;7.90;99.90
30308;DHT22;17114;52.314;8.910;2024-02-28T11:26:59;7.80;99.90
30308;DHT22;17114;52.314;8.910;2024-02-28T11:29:28;7.90;99.90
30308;DHT22;17114;52.314;8.910;2024-02-28T11:31:56;7.90;99.90
30308;DHT22;17114;52.314;8.910;2024-02-28T11:34:23;8.10;99.90
30308;DHT22;17114;52.314;8.910;2024-02-28T11:36:50;8.10;99.90
30308;DHT22;17114;52.314;8.910;2024-02-28T11:39:18;8.30;99.90
30308;DHT22;17114;52.314;8.910;2024-02-28T11:41:45;8.40;99.90
30308;DHT22;17114;52.314;8.910;2024-02-28T11:44:14;8.30;99.90
30308;DHT22;17114;52.314;8.910;2024-02-28T11:46:48;8.20;99.90
30308;DHT22;17114;52.314;8.910;2024-02-28T11:49:16;8.30;99.90
30308;DHT22;17114;52.314;8.910;2024-02-28T11:51:43;8.30;99.90
30308;DHT22;17114;52.314;8.910;2024-02-28T11:54:11;8.40;99.90
30308;DHT22;17114;52.314;8.910;2024-02-28T11:56:39;8.30;99.90
30308;DHT22;17114;52.314;8.910;2024-02-28T11:59:06;8.30;99.90
30308;DHT22;17114;52.314;8.910;2024-02-28T12:01:42;8.20;99.90
30308;DHT22;17114;52.314;8.910;2024-02-28T12:04:11;8.20;99.90
30308;DHT22;17114;52.314;8.910;2024-02-28T12:06:38;8.00;99.90
30308;DHT22;17114;52.314;8.910;2024-02-28T12:09:08;8.30;99.90
30308;DHT22;17114;52.314;8.910;2024-02-28T12:11:44;8.40;99.90
30308;DHT22;17114;52.314;8.910;2024-02-28T12:14:12;8.60;99.90
30308;DHT22;17114;52.314;8.910;2024-02-28T12:16:39;8.50;99.90
30308;DHT22;17114;52.314;8.910;2024-02-28T12:19:08;8.60;99.90
30308;DHT22;17114;52.314;8.910;2024-02-28T12:21:36;8.70;99.90
30308;DHT22;17114;52.314;8.910;2024-02-28T12:24:08;8.60;99.90
30308;DHT22;17114;52.314;8.910;2024-02-28T12:26:38;8.50;99.90
30308;DHT22;17114;52.314;8.910;2024-02-28T12:29:06;8.50;99.90
30308;DHT22;17114;52.314;8.910;2024-02-28T12:31:33;8.60;99.90
30308;DHT22;17114;52.314;8.910;2024-02-28T12:34:00;8.70;99.90
30308;DHT22;17114;52.314;8.910;2024-02-28T12:36:27;8.70;99.90
30308;DHT22;17114;52.314;8.910;2024-02-28T12:38:54;8.70;99.90
30308;DHT22;17114;52.314;8.910;2024-02-28T12:41:21;8.60;99.90
30308;DHT22;17114;52.314;8.910;2024-02-28T12:43:48;8.40;99.90
30308;DHT22;17114;52.314;8.910;2024-02-28T12:46:14;8.40;99.90
30308;DHT22;17114;52.314;8.910;2024-02-28T12:48:42;8.30;99.90
30308;DHT22;17114;52.314;8.910;2024-02-28T12:51:20;8.40;99.90
30308;DHT22;17114;52.314;8.910;2024-02-28T12:53:47;8.30;99.90
30308;DHT22;17114;52.314;8.910;2024-02-28T12:56:18;8.00;99.90
30308;DHT22;17114;52.314;8.910;2024-02-28T12:58:45;7.80;99.90
30308;DHT22;17114;52.314;8.910;2024-02-28T13:01:11;7.80;99.90
30308;DHT22;17114;52.314;8.910;2024-02-28T13:03:39;7.90;99.90
30308;DHT22;17114;52.314;8.910;2024-02-28T13:06:05;8.00;99.90
30308;DHT22;17114;52.314;8.910;2024-02-28T13:08:32;7.70;99.90
30308;DHT22;17114;52.314;8.910;2024-02-28T13:10:59;7.60;99.90
30308;DHT22;17114;52.314;8.910;2024-02-28T13:13:26;7.60;99.90
30308;DHT22;17114;52.314;8.910;2024-02-28T13:15:53;7.60;99.90
30308;DHT22;17114;52.314;8.910;2024-02-28T13:18:20;7.50;99.90
30308;DHT22;17114;52.314;8.910;2024-02-28T13:20:47;7.40;99.90
30308;DHT22;17114;52.314;8.910;2024-02-28T13:23:13;7.20;99.90
30308;DHT22;17114;52.314;8.910;2024-02-28T13:25:40;7.10;99.90
30308;DHT22;17114;52.314;8.910;2024-02-28T13:28:07;7.00;99.90
30308;DHT22;17114;52.314;8.910;2024-02-28T13:30:34;6.90;99.90
30308;DHT22;17114;52.314;8.910;2024-02-28T13:33:03;6.80;99.90
30308;DHT22;17114;52.314;8.910;2024-02-28T13:35:30;6.70;99.90
30308;DHT22;17114;52.314;8.910;2024-02-28T13:38:00;6.70;99.90
30308;DHT22;17114;52.314;8.910;2024-02-28T13:40:28;6.70;99.90
30308;DHT22;17114;52.314;8.910;2024-02-28T13:42:55;6.60;99.90
30308;DHT22;17114;52.314;8.910;2024-02-28T13:45:22;6.50;99.90
30308;DHT22;17114;52.314;8.910;2024-02-28T13:47:49;6.50;99.90
30308;DHT22;17114;52.314;8.910;2024-02-28T13:50:16;6.50;99.90
30308;DHT22;17114;52.314;8.910;2024-02-28T13:52:42;6.50;99.90
30308;DHT22;17114;52.314;8.910;2024-02-28T13:55:09;6.40;99.90
30308;DHT22;17114;52.314;8.910;2024-02-28T13:57:36;6.50;99.90
30308;DHT22;17114;52.314;8.910;2024-02-28T14:00:05;6.40;99.90
30308;DHT22;17114;52.314;8.910;2024-02-28T14:02:33;6.50;99.90
30308;DHT22;17114;52.314;8.910;2024-02-28T14:05:00;6.60;99.90
30308;DHT22;17114;52.314;8.910;2024-02-28T14:07:27;6.60;99.90
30308;DHT22;17114;52.314;8.910;2024-02-28T14:09:54;6.70;99.90
30308;DHT22;17114;52.314;8.910;2024-02-28T14:12:23;6.70;99.90
30308;DHT22;17114;52.314;8.910;2024-02-28T14:14:50;6.80;99.90
30308;DHT22;17114;52.314;8.910;2024-02-28T14:17:17;6.80;99.90
30308;DHT22;17114;52.314;8.910;2024-02-28T14:19:44;6.90;99.90
30308;DHT22;17114;52.314;8.910;2024-02-28T14:22:13;6.90;99.90
30308;DHT22;17114;52.314;8.910;2024-02-28T14:24:40;6.80;99.90
30308;DHT22;17114;52.314;8.910;2024-02-28T14:27:07;6.70;99.90
30308;DHT22;17114;52.314;8.910;2024-02-28T14:29:34;6.60;99.90
30308;DHT22;17114;52.314;8.910;2024-02-28T14:32:00;6.60;99.90
30308;DHT22;17114;52.314;8.910;2024-02-28T14:34:28;6.50;99.90
30308;DHT22;17114;52.314;8.910;2024-02-28T14:36:58;6.50;99.90
30308;DHT22;17114;52.314;8.910;2024-02-28T14:39:25;6.50;99.90
30308;DHT22;17114;52.314;8.910;2024-02-28T14:41:52;6.60;99.90
30308;DHT22;17114;52.314;8.910;2024-02-28T14:44:19;6.50;99.90
30308;DHT22;17114;52.314;8.910;2024-02-28T14:46:46;6.50;99.90
30308;DHT22;17114;52.314;8.910;2024-02-28T14:49:13;6.50;99.90
30308;DHT22;17114;52.314;8.910;2024-02-28T14:51:40;6.50;99.90
30308;DHT22;17114;52.314;8.910;2024-02-28T14:54:08;6.60;99.90
30308;DHT22;17114;52.314;8.910;2024-02-28T14:56:35;6.40;99.90
30308;DHT22;17114;52.314;8.910;2024-02-28T14:59:02;6.40;99.90
30308;DHT22;17114;52.314;8.910;2024-02-28T15:01:30;6.40;99.90
30308;DHT22;17114;52.314;8.910;2024-02-28T15:03:57;6.40;99.90
30308;DHT22;17114;52.314;8.910;2024-02-28T15:06:24;6.40;99.90
30308;DHT22;17114;52.314;8.910;2024-02-28T15:08:51;6.40;99.90
30308;DHT22;17114;52.314;8.910;2024-02-28T15:11:18;6.30;99.90
30308;DHT22;17114;52.314;8.910;2024-02-28T15:13:45;6.40;99.90
30308;DHT22;17114;52.314;8.910;2024-02-28T15:16:13;6.30;99.90
30308;DHT22;17114;52.314;8.910;2024-02-28T15:18:40;6.20;99.90
30308;DHT22;17114;52.314;8.910;2024-02-28T15:21:07;6.20;99.90
30308;DHT22;17114;52.314;8.910;2024-02-28T15:23:34;6.40;99.90
30308;DHT22;17114;52.314;8.910;2024-02-28T15:26:02;6.30;99.90
30308;DHT22;17114;52.314;8.910;2024-02-28T15:28:29;6.40;99.90
30308;DHT22;17114;52.314;8.910;2024-02-28T15:30:57;6.30;99.90
30308;DHT22;17114;52.314;8.910;2024-02-28T15:33:25;6.30;99.90
30308;DHT22;17114;52.314;8.910;2024-02-28T15:35:52;6.20;99.90
30308;DHT22;17114;52.314;8.910;2024-02-28T15:38:19;6.20;99.90
30308;DHT22;17114;52.314;8.910;2024-02-28T15:40:46;6.10;99.90
30308;DHT22;17114;52.314;8.910;2024-02-28T15:43:13;6.10;99.90